Portada
METAR-TAF:

METAR-TAF

Aeroports :

Kerteh, Malàisia

latitud: 04-32-15N, longitud: 103-25-36E, altitud: 5 m

Observació

L'informe es va fer fa 11 minuts, a les 22:00 UTC
Vent calma
Temperatura 25°C
Humitat 100%
Pressió 1010 hPa

METAR: WMKE 252200Z AUTO 00000KT //// // ////// 25/25 Q1010

Hora: 06:11 (22:11 UTC)

Pronòstic

L'informe es va fer fa 5 hores i 11 minuts, a les 17:00 UTC
Pronòstic vàlid del 25 a les 18 UTC al 26 a les 18 UTC
Vent 3 kt amb direcció variable
Visibilitat 10 km o més
Escasses núvols a una alçada de 1500 ft
Evolucionant progressivament
l' 26 a les 00 UTC al 26 a les 01 UTC
Vent 6 kt del Sud/Sud-Est
Escasses núvols a una alçada de 1400 ft

TAF: WMKE 251700Z 2518/2618 VRB03KT 9999 FEW015 BECMG 2600/2601 16006KT FEW014

Observacions i pronòstics meteorològics de més de 4000 aeroports (METAR i TAF).

Les estacions disponibles són els punts grocs i vermells al mapa.

Posi el ratolí al punt desitjat per veure el nom de l'estació.

Feu clic per veure les observacions i els pronòstics meteorològics.

Per canviar el mapa: feu clic els botons verds amb una creu de color negre per apropar; al botó verd amb un guió per allunyar la imatge; o en les fletxes verdes per a mapes adjacents.


METAR-TAF: